sensor_id;sensor_type;location;lat;lon;timestamp;temperature;humidity
25188;DHT22;13141;50.414;8.050;2022-12-10T00:00:40;1.80;99.90
25188;DHT22;13141;50.414;8.050;2022-12-10T00:03:06;1.60;99.90
25188;DHT22;13141;50.414;8.050;2022-12-10T00:05:35;1.30;99.90
25188;DHT22;13141;50.414;8.050;2022-12-10T00:08:01;1.60;99.90
25188;DHT22;13141;50.414;8.050;2022-12-10T00:10:26;1.60;99.90
25188;DHT22;13141;50.414;8.050;2022-12-10T00:12:52;1.60;99.90
25188;DHT22;13141;50.414;8.050;2022-12-10T00:15:17;1.60;99.90
25188;DHT22;13141;50.414;8.050;2022-12-10T00:17:43;1.60;99.90
25188;DHT22;13141;50.414;8.050;2022-12-10T00:20:09;1.60;99.90
25188;DHT22;13141;50.414;8.050;2022-12-10T00:22:35;1.70;99.90
25188;DHT22;13141;50.414;8.050;2022-12-10T00:25:00;1.60;99.90
25188;DHT22;13141;50.414;8.050;2022-12-10T00:27:26;1.70;99.90
25188;DHT22;13141;50.414;8.050;2022-12-10T00:29:51;1.70;99.90
25188;DHT22;13141;50.414;8.050;2022-12-10T00:32:17;1.70;99.90
25188;DHT22;13141;50.414;8.050;2022-12-10T00:34:42;1.80;99.90
25188;DHT22;13141;50.414;8.050;2022-12-10T00:37:08;1.80;99.90
25188;DHT22;13141;50.414;8.050;2022-12-10T00:39:34;1.90;99.90
25188;DHT22;13141;50.414;8.050;2022-12-10T00:41:59;1.80;99.90
25188;DHT22;13141;50.414;8.050;2022-12-10T00:44:25;1.80;99.90
25188;DHT22;13141;50.414;8.050;2022-12-10T00:46:50;1.80;99.90
25188;DHT22;13141;50.414;8.050;2022-12-10T00:49:16;1.80;99.90
25188;DHT22;13141;50.414;8.050;2022-12-10T00:51:41;2.00;99.90
25188;DHT22;13141;50.414;8.050;2022-12-10T00:54:08;1.80;99.90
25188;DHT22;13141;50.414;8.050;2022-12-10T00:56:34;1.90;99.90
25188;DHT22;13141;50.414;8.050;2022-12-10T00:59:00;1.90;99.90
25188;DHT22;13141;50.414;8.050;2022-12-10T01:01:35;1.90;99.90
25188;DHT22;13141;50.414;8.050;2022-12-10T01:04:10;1.90;99.90
25188;DHT22;13141;50.414;8.050;2022-12-10T01:06:42;1.90;99.90
25188;DHT22;13141;50.414;8.050;2022-12-10T01:09:10;1.90;99.90
25188;DHT22;13141;50.414;8.050;2022-12-10T01:11:38;1.90;99.90
25188;DHT22;13141;50.414;8.050;2022-12-10T01:14:06;1.90;99.90
25188;DHT22;13141;50.414;8.050;2022-12-10T01:16:32;2.10;99.90
25188;DHT22;13141;50.414;8.050;2022-12-10T01:18:58;1.90;99.90
25188;DHT22;13141;50.414;8.050;2022-12-10T01:21:24;1.90;99.90
25188;DHT22;13141;50.414;8.050;2022-12-10T01:23:52;1.90;99.90
25188;DHT22;13141;50.414;8.050;2022-12-10T01:26:21;1.90;99.90
25188;DHT22;13141;50.414;8.050;2022-12-10T01:28:46;2.00;99.90
25188;DHT22;13141;50.414;8.050;2022-12-10T01:31:21;1.90;99.90
25188;DHT22;13141;50.414;8.050;2022-12-10T01:33:47;1.90;99.90
25188;DHT22;13141;50.414;8.050;2022-12-10T01:38:40;1.90;99.90
25188;DHT22;13141;50.414;8.050;2022-12-10T01:41:07;1.90;99.90
25188;DHT22;13141;50.414;8.050;2022-12-10T01:49:08;2.00;99.90
25188;DHT22;13141;50.414;8.050;2022-12-10T01:51:36;2.00;99.90
25188;DHT22;13141;50.414;8.050;2022-12-10T01:54:04;2.00;99.90
25188;DHT22;13141;50.414;8.050;2022-12-10T01:56:31;2.00;99.90
25188;DHT22;13141;50.414;8.050;2022-12-10T01:59:01;2.10;99.90
25188;DHT22;13141;50.414;8.050;2022-12-10T02:04:31;2.10;99.90
25188;DHT22;13141;50.414;8.050;2022-12-10T02:10:06;2.20;99.90
25188;DHT22;13141;50.414;8.050;2022-12-10T02:12:49;2.10;99.90
25188;DHT22;13141;50.414;8.050;2022-12-10T02:15:25;2.10;99.90
25188;DHT22;13141;50.414;8.050;2022-12-10T02:20:25;2.10;99.90
25188;DHT22;13141;50.414;8.050;2022-12-10T02:23:04;2.30;99.90
25188;DHT22;13141;50.414;8.050;2022-12-10T02:25:46;2.10;99.90
25188;DHT22;13141;50.414;8.050;2022-12-10T02:28:25;2.10;99.90
25188;DHT22;13141;50.414;8.050;2022-12-10T02:30:54;2.10;99.90
25188;DHT22;13141;50.414;8.050;2022-12-10T02:33:23;2.10;99.90
25188;DHT22;13141;50.414;8.050;2022-12-10T02:35:50;2.10;99.90
25188;DHT22;13141;50.414;8.050;2022-12-10T02:38:27;2.10;99.90
25188;DHT22;13141;50.414;8.050;2022-12-10T02:40:59;2.10;99.90
25188;DHT22;13141;50.414;8.050;2022-12-10T02:43:27;2.10;99.90
25188;DHT22;13141;50.414;8.050;2022-12-10T02:45:55;2.10;99.90
25188;DHT22;13141;50.414;8.050;2022-12-10T02:48:22;2.10;99.90
25188;DHT22;13141;50.414;8.050;2022-12-10T02:50:47;2.10;99.90
25188;DHT22;13141;50.414;8.050;2022-12-10T02:53:13;2.20;99.90
25188;DHT22;13141;50.414;8.050;2022-12-10T02:58:26;2.10;99.90
25188;DHT22;13141;50.414;8.050;2022-12-10T03:01:06;2.10;99.90
25188;DHT22;13141;50.414;8.050;2022-12-10T03:03:49;2.20;99.90
25188;DHT22;13141;50.414;8.050;2022-12-10T03:06:30;2.20;99.90
25188;DHT22;13141;50.414;8.050;2022-12-10T03:09:03;2.20;99.90
25188;DHT22;13141;50.414;8.050;2022-12-10T03:11:30;2.20;99.90
25188;DHT22;13141;50.414;8.050;2022-12-10T03:14:10;2.20;99.90
25188;DHT22;13141;50.414;8.050;2022-12-10T03:16:42;2.40;99.90
25188;DHT22;13141;50.414;8.050;2022-12-10T03:19:16;2.20;99.90
25188;DHT22;13141;50.414;8.050;2022-12-10T03:21:44;2.10;99.90
25188;DHT22;13141;50.414;8.050;2022-12-10T03:24:11;1.80;99.90
25188;DHT22;13141;50.414;8.050;2022-12-10T03:26:38;2.10;99.90
25188;DHT22;13141;50.414;8.050;2022-12-10T03:29:11;2.00;99.90
25188;DHT22;13141;50.414;8.050;2022-12-10T03:31:39;2.10;99.90
25188;DHT22;13141;50.414;8.050;2022-12-10T03:34:07;2.00;99.90
25188;DHT22;13141;50.414;8.050;2022-12-10T03:36:34;2.10;99.90
25188;DHT22;13141;50.414;8.050;2022-12-10T03:39:00;2.10;99.90
25188;DHT22;13141;50.414;8.050;2022-12-10T03:41:26;2.10;99.90
25188;DHT22;13141;50.414;8.050;2022-12-10T03:43:54;2.10;99.90
25188;DHT22;13141;50.414;8.050;2022-12-10T03:46:20;2.00;99.90
25188;DHT22;13141;50.414;8.050;2022-12-10T03:48:46;2.20;99.90
25188;DHT22;13141;50.414;8.050;2022-12-10T03:51:11;2.10;99.90
25188;DHT22;13141;50.414;8.050;2022-12-10T03:53:37;2.10;99.90
25188;DHT22;13141;50.414;8.050;2022-12-10T03:56:02;2.30;99.90
25188;DHT22;13141;50.414;8.050;2022-12-10T03:58:28;2.10;99.90
25188;DHT22;13141;50.414;8.050;2022-12-10T04:00:53;2.10;99.90
25188;DHT22;13141;50.414;8.050;2022-12-10T04:03:19;2.10;99.90
25188;DHT22;13141;50.414;8.050;2022-12-10T04:05:44;2.20;99.90
25188;DHT22;13141;50.414;8.050;2022-12-10T04:08:10;2.10;99.90
25188;DHT22;13141;50.414;8.050;2022-12-10T04:10:38;2.10;99.90
25188;DHT22;13141;50.414;8.050;2022-12-10T04:13:04;2.10;99.90
25188;DHT22;13141;50.414;8.050;2022-12-10T04:15:48;2.10;99.90
25188;DHT22;13141;50.414;8.050;2022-12-10T04:18:32;2.10;99.90
25188;DHT22;13141;50.414;8.050;2022-12-10T04:20:58;2.10;99.90
25188;DHT22;13141;50.414;8.050;2022-12-10T04:23:42;2.30;99.90
25188;DHT22;13141;50.414;8.050;2022-12-10T04:26:26;2.10;99.90
25188;DHT22;13141;50.414;8.050;2022-12-10T04:29:10;2.10;99.90
25188;DHT22;13141;50.414;8.050;2022-12-10T04:31:36;2.10;99.90
25188;DHT22;13141;50.414;8.050;2022-12-10T04:34:02;2.10;99.90
25188;DHT22;13141;50.414;8.050;2022-12-10T04:36:27;2.10;99.90
25188;DHT22;13141;50.414;8.050;2022-12-10T04:38:53;2.10;99.90
25188;DHT22;13141;50.414;8.050;2022-12-10T04:41:18;2.10;99.90
25188;DHT22;13141;50.414;8.050;2022-12-10T04:43:44;2.10;99.90
25188;DHT22;13141;50.414;8.050;2022-12-10T04:46:09;2.10;99.90
25188;DHT22;13141;50.414;8.050;2022-12-10T04:48:35;2.10;99.90
25188;DHT22;13141;50.414;8.050;2022-12-10T04:51:01;2.10;99.90
25188;DHT22;13141;50.414;8.050;2022-12-10T04:53:27;2.10;99.90
25188;DHT22;13141;50.414;8.050;2022-12-10T04:55:52;2.10;99.90
25188;DHT22;13141;50.414;8.050;2022-12-10T04:58:18;2.10;99.90
25188;DHT22;13141;50.414;8.050;2022-12-10T05:00:44;2.10;99.90
25188;DHT22;13141;50.414;8.050;2022-12-10T05:03:09;2.10;99.90
25188;DHT22;13141;50.414;8.050;2022-12-10T05:05:35;2.00;99.90
25188;DHT22;13141;50.414;8.050;2022-12-10T05:08:01;2.00;99.90
25188;DHT22;13141;50.414;8.050;2022-12-10T05:10:27;1.90;99.90
25188;DHT22;13141;50.414;8.050;2022-12-10T05:12:52;1.90;99.90
25188;DHT22;13141;50.414;8.050;2022-12-10T05:15:18;2.00;99.90
25188;DHT22;13141;50.414;8.050;2022-12-10T05:17:44;1.80;99.90
25188;DHT22;13141;50.414;8.050;2022-12-10T05:20:09;1.90;99.90
25188;DHT22;13141;50.414;8.050;2022-12-10T05:22:35;1.80;99.90
25188;DHT22;13141;50.414;8.050;2022-12-10T05:25:20;1.80;99.90
25188;DHT22;13141;50.414;8.050;2022-12-10T05:27:45;1.70;99.90
25188;DHT22;13141;50.414;8.050;2022-12-10T05:30:11;1.70;99.90
25188;DHT22;13141;50.414;8.050;2022-12-10T05:32:37;1.60;99.90
25188;DHT22;13141;50.414;8.050;2022-12-10T05:35:03;1.50;99.90
25188;DHT22;13141;50.414;8.050;2022-12-10T05:37:28;1.50;99.90
25188;DHT22;13141;50.414;8.050;2022-12-10T05:39:54;1.50;99.90
25188;DHT22;13141;50.414;8.050;2022-12-10T05:42:20;1.40;99.90
25188;DHT22;13141;50.414;8.050;2022-12-10T05:44:45;1.40;99.90
25188;DHT22;13141;50.414;8.050;2022-12-10T05:47:11;1.40;99.90
25188;DHT22;13141;50.414;8.050;2022-12-10T05:49:37;1.40;99.90
25188;DHT22;13141;50.414;8.050;2022-12-10T05:52:02;1.40;99.90
25188;DHT22;13141;50.414;8.050;2022-12-10T05:54:28;1.40;99.90
25188;DHT22;13141;50.414;8.050;2022-12-10T05:56:53;1.40;99.90
25188;DHT22;13141;50.414;8.050;2022-12-10T05:59:19;1.40;99.90
25188;DHT22;13141;50.414;8.050;2022-12-10T06:01:45;1.60;99.90
25188;DHT22;13141;50.414;8.050;2022-12-10T06:04:11;1.30;99.90
25188;DHT22;13141;50.414;8.050;2022-12-10T06:06:38;1.30;99.90
25188;DHT22;13141;50.414;8.050;2022-12-10T06:09:06;1.30;99.90
25188;DHT22;13141;50.414;8.050;2022-12-10T06:11:32;1.30;99.90
25188;DHT22;13141;50.414;8.050;2022-12-10T06:13:58;1.30;99.90
25188;DHT22;13141;50.414;8.050;2022-12-10T06:16:25;1.30;99.90
25188;DHT22;13141;50.414;8.050;2022-12-10T06:18:51;1.30;99.90
25188;DHT22;13141;50.414;8.050;2022-12-10T06:21:18;1.30;99.90
25188;DHT22;13141;50.414;8.050;2022-12-10T06:23:45;1.30;99.90
25188;DHT22;13141;50.414;8.050;2022-12-10T06:26:16;1.30;99.90
25188;DHT22;13141;50.414;8.050;2022-12-10T06:28:44;1.30;99.90
25188;DHT22;13141;50.414;8.050;2022-12-10T06:31:10;1.30;99.90
25188;DHT22;13141;50.414;8.050;2022-12-10T06:33:36;1.30;99.90
25188;DHT22;13141;50.414;8.050;2022-12-10T06:36:06;1.20;99.90
25188;DHT22;13141;50.414;8.050;2022-12-10T06:38:33;0.80;99.90
25188;DHT22;13141;50.414;8.050;2022-12-10T06:40:58;1.20;99.90
25188;DHT22;13141;50.414;8.050;2022-12-10T06:43:24;1.30;99.90
25188;DHT22;13141;50.414;8.050;2022-12-10T06:45:49;1.20;99.90
25188;DHT22;13141;50.414;8.050;2022-12-10T06:48:15;1.20;99.90
25188;DHT22;13141;50.414;8.050;2022-12-10T06:50:40;1.20;99.90
25188;DHT22;13141;50.414;8.050;2022-12-10T06:53:06;1.20;99.90
25188;DHT22;13141;50.414;8.050;2022-12-10T06:55:32;1.20;99.90
25188;DHT22;13141;50.414;8.050;2022-12-10T06:57:58;1.10;99.90
25188;DHT22;13141;50.414;8.050;2022-12-10T07:00:23;1.10;99.90
25188;DHT22;13141;50.414;8.050;2022-12-10T07:02:49;1.20;99.90
25188;DHT22;13141;50.414;8.050;2022-12-10T07:05:15;1.10;99.90
25188;DHT22;13141;50.414;8.050;2022-12-10T07:07:40;1.10;99.90
25188;DHT22;13141;50.414;8.050;2022-12-10T07:10:06;1.00;99.90
25188;DHT22;13141;50.414;8.050;2022-12-10T07:12:32;1.00;99.90
25188;DHT22;13141;50.414;8.050;2022-12-10T07:14:58;1.00;99.90
25188;DHT22;13141;50.414;8.050;2022-12-10T07:17:23;0.90;99.90
25188;DHT22;13141;50.414;8.050;2022-12-10T07:19:49;0.90;99.90
25188;DHT22;13141;50.414;8.050;2022-12-10T07:22:15;0.90;99.90
25188;DHT22;13141;50.414;8.050;2022-12-10T07:24:40;0.90;99.90
25188;DHT22;13141;50.414;8.050;2022-12-10T07:27:07;1.10;99.90
25188;DHT22;13141;50.414;8.050;2022-12-10T07:29:33;1.00;99.90
25188;DHT22;13141;50.414;8.050;2022-12-10T07:31:59;0.90;99.90
25188;DHT22;13141;50.414;8.050;2022-12-10T07:34:25;0.90;99.90
25188;DHT22;13141;50.414;8.050;2022-12-10T07:36:50;0.90;99.90
25188;DHT22;13141;50.414;8.050;2022-12-10T07:39:16;0.90;99.90
25188;DHT22;13141;50.414;8.050;2022-12-10T07:41:51;0.90;99.90
25188;DHT22;13141;50.414;8.050;2022-12-10T07:44:19;1.00;99.90
25188;DHT22;13141;50.414;8.050;2022-12-10T07:46:47;1.00;99.90
25188;DHT22;13141;50.414;8.050;2022-12-10T07:49:13;1.00;99.90
25188;DHT22;13141;50.414;8.050;2022-12-10T07:51:39;1.00;99.90
25188;DHT22;13141;50.414;8.050;2022-12-10T07:54:04;1.00;99.90
25188;DHT22;13141;50.414;8.050;2022-12-10T07:56:30;0.60;99.90
25188;DHT22;13141;50.414;8.050;2022-12-10T07:58:56;1.00;99.90
25188;DHT22;13141;50.414;8.050;2022-12-10T08:01:23;1.10;99.90
25188;DHT22;13141;50.414;8.050;2022-12-10T08:03:50;1.00;99.90
25188;DHT22;13141;50.414;8.050;2022-12-10T08:06:17;1.00;99.90
25188;DHT22;13141;50.414;8.050;2022-12-10T08:08:44;1.00;99.90
25188;DHT22;13141;50.414;8.050;2022-12-10T08:11:11;1.20;99.90
25188;DHT22;13141;50.414;8.050;2022-12-10T08:13:38;1.10;99.90
25188;DHT22;13141;50.414;8.050;2022-12-10T08:18:32;1.20;99.90
25188;DHT22;13141;50.414;8.050;2022-12-10T08:20:58;1.20;99.90
25188;DHT22;13141;50.414;8.050;2022-12-10T08:23:24;1.20;99.90
25188;DHT22;13141;50.414;8.050;2022-12-10T08:25:49;1.20;99.90
25188;DHT22;13141;50.414;8.050;2022-12-10T08:28:15;1.20;99.90
25188;DHT22;13141;50.414;8.050;2022-12-10T08:30:48;1.30;99.90
25188;DHT22;13141;50.414;8.050;2022-12-10T08:33:14;1.30;99.90
25188;DHT22;13141;50.414;8.050;2022-12-10T08:35:40;1.30;99.90
25188;DHT22;13141;50.414;8.050;2022-12-10T08:38:06;1.20;99.90
25188;DHT22;13141;50.414;8.050;2022-12-10T08:40:31;1.30;99.90
25188;DHT22;13141;50.414;8.050;2022-12-10T08:42:57;1.30;99.90
25188;DHT22;13141;50.414;8.050;2022-12-10T08:45:23;1.30;99.90
25188;DHT22;13141;50.414;8.050;2022-12-10T08:47:49;1.40;99.90
25188;DHT22;13141;50.414;8.050;2022-12-10T08:50:14;1.40;99.90
25188;DHT22;13141;50.414;8.050;2022-12-10T08:52:40;1.40;99.90
25188;DHT22;13141;50.414;8.050;2022-12-10T08:55:06;1.40;99.90
25188;DHT22;13141;50.414;8.050;2022-12-10T08:57:32;1.50;99.90
25188;DHT22;13141;50.414;8.050;2022-12-10T08:59:57;1.50;99.90
25188;DHT22;13141;50.414;8.050;2022-12-10T09:02:23;1.50;99.90
25188;DHT22;13141;50.414;8.050;2022-12-10T09:04:50;1.50;99.90
25188;DHT22;13141;50.414;8.050;2022-12-10T09:07:16;1.50;99.90
25188;DHT22;13141;50.414;8.050;2022-12-10T09:09:42;1.70;99.90
25188;DHT22;13141;50.414;8.050;2022-12-10T09:12:07;1.60;99.90
25188;DHT22;13141;50.414;8.050;2022-12-10T09:14:33;1.60;99.90
25188;DHT22;13141;50.414;8.050;2022-12-10T09:17:01;1.60;99.90
25188;DHT22;13141;50.414;8.050;2022-12-10T09:19:28;1.60;99.90
25188;DHT22;13141;50.414;8.050;2022-12-10T09:21:53;1.70;99.90
25188;DHT22;13141;50.414;8.050;2022-12-10T09:24:19;1.70;99.90
25188;DHT22;13141;50.414;8.050;2022-12-10T09:26:44;2.00;99.90
25188;DHT22;13141;50.414;8.050;2022-12-10T09:29:10;1.80;99.90
25188;DHT22;13141;50.414;8.050;2022-12-10T09:31:36;1.80;99.90
25188;DHT22;13141;50.414;8.050;2022-12-10T09:34:01;1.90;99.90
25188;DHT22;13141;50.414;8.050;2022-12-10T09:36:27;1.90;99.90
25188;DHT22;13141;50.414;8.050;2022-12-10T09:38:53;1.90;99.90
25188;DHT22;13141;50.414;8.050;2022-12-10T09:44:52;2.00;99.90
25188;DHT22;13141;50.414;8.050;2022-12-10T09:47:26;2.00;99.90
25188;DHT22;13141;50.414;8.050;2022-12-10T09:50:11;2.00;99.90
25188;DHT22;13141;50.414;8.050;2022-12-10T09:52:42;2.10;99.90
25188;DHT22;13141;50.414;8.050;2022-12-10T09:55:15;2.10;99.90
25188;DHT22;13141;50.414;8.050;2022-12-10T09:57:50;2.10;99.90
25188;DHT22;13141;50.414;8.050;2022-12-10T10:02:57;2.00;99.90
25188;DHT22;13141;50.414;8.050;2022-12-10T10:05:46;2.00;99.90
25188;DHT22;13141;50.414;8.050;2022-12-10T10:08:23;2.00;99.90
25188;DHT22;13141;50.414;8.050;2022-12-10T10:10:50;2.00;99.90
25188;DHT22;13141;50.414;8.050;2022-12-10T10:13:38;2.00;99.90
25188;DHT22;13141;50.414;8.050;2022-12-10T10:16:28;1.90;99.90
25188;DHT22;13141;50.414;8.050;2022-12-10T10:19:11;2.00;99.90
25188;DHT22;13141;50.414;8.050;2022-12-10T10:21:41;2.00;99.90
25188;DHT22;13141;50.414;8.050;2022-12-10T10:24:13;2.20;99.90
25188;DHT22;13141;50.414;8.050;2022-12-10T10:26:40;2.30;99.90
25188;DHT22;13141;50.414;8.050;2022-12-10T10:29:11;2.30;99.90
25188;DHT22;13141;50.414;8.050;2022-12-10T10:31:42;2.40;99.90
25188;DHT22;13141;50.414;8.050;2022-12-10T10:34:20;2.70;99.90
25188;DHT22;13141;50.414;8.050;2022-12-10T10:36:47;2.50;99.90
25188;DHT22;13141;50.414;8.050;2022-12-10T10:41:52;2.60;99.90
25188;DHT22;13141;50.414;8.050;2022-12-10T10:44:23;2.50;99.90
25188;DHT22;13141;50.414;8.050;2022-12-10T10:46:52;2.70;99.90
25188;DHT22;13141;50.414;8.050;2022-12-10T10:49:27;2.70;99.90
25188;DHT22;13141;50.414;8.050;2022-12-10T10:51:58;2.80;99.90
25188;DHT22;13141;50.414;8.050;2022-12-10T10:54:37;2.90;99.90
25188;DHT22;13141;50.414;8.050;2022-12-10T10:57:15;2.90;99.90
25188;DHT22;13141;50.414;8.050;2022-12-10T10:59:43;3.00;99.90
25188;DHT22;13141;50.414;8.050;2022-12-10T11:02:25;3.00;99.90
25188;DHT22;13141;50.414;8.050;2022-12-10T11:04:55;3.00;99.90
25188;DHT22;13141;50.414;8.050;2022-12-10T11:07:34;3.20;99.90
25188;DHT22;13141;50.414;8.050;2022-12-10T11:10:03;3.30;99.90
25188;DHT22;13141;50.414;8.050;2022-12-10T11:14:55;3.40;99.90
25188;DHT22;13141;50.414;8.050;2022-12-10T11:17:23;3.50;99.90
25188;DHT22;13141;50.414;8.050;2022-12-10T11:22:24;3.70;99.90
25188;DHT22;13141;50.414;8.050;2022-12-10T11:24:51;3.70;99.90
25188;DHT22;13141;50.414;8.050;2022-12-10T11:30:15;3.80;99.90
25188;DHT22;13141;50.414;8.050;2022-12-10T11:38:21;3.90;99.90
25188;DHT22;13141;50.414;8.050;2022-12-10T11:43:40;4.00;99.90
25188;DHT22;13141;50.414;8.050;2022-12-10T11:49:17;4.00;99.90
25188;DHT22;13141;50.414;8.050;2022-12-10T11:57:40;3.90;99.90
25188;DHT22;13141;50.414;8.050;2022-12-10T12:00:21;3.90;99.90
25188;DHT22;13141;50.414;8.050;2022-12-10T12:03:19;3.90;99.90
25188;DHT22;13141;50.414;8.050;2022-12-10T12:14:18;3.60;99.90
25188;DHT22;13141;50.414;8.050;2022-12-10T12:17:16;3.50;99.90
25188;DHT22;13141;50.414;8.050;2022-12-10T12:20:08;3.50;99.90
25188;DHT22;13141;50.414;8.050;2022-12-10T12:22:43;3.40;99.90
25188;DHT22;13141;50.414;8.050;2022-12-10T12:25:26;3.40;99.90
25188;DHT22;13141;50.414;8.050;2022-12-10T12:28:14;3.40;99.90
25188;DHT22;13141;50.414;8.050;2022-12-10T12:30:43;3.40;99.90
25188;DHT22;13141;50.414;8.050;2022-12-10T12:33:20;3.30;99.90
25188;DHT22;13141;50.414;8.050;2022-12-10T12:36:00;3.20;99.90
25188;DHT22;13141;50.414;8.050;2022-12-10T12:41:09;3.10;99.90
25188;DHT22;13141;50.414;8.050;2022-12-10T12:43:56;3.10;99.90
25188;DHT22;13141;50.414;8.050;2022-12-10T12:46:37;3.10;99.90
25188;DHT22;13141;50.414;8.050;2022-12-10T12:49:28;3.10;99.90
25188;DHT22;13141;50.414;8.050;2022-12-10T12:52:13;3.00;99.90
25188;DHT22;13141;50.414;8.050;2022-12-10T12:54:43;3.00;99.90
25188;DHT22;13141;50.414;8.050;2022-12-10T12:57:28;2.90;99.90
25188;DHT22;13141;50.414;8.050;2022-12-10T13:00:20;2.80;99.90
25188;DHT22;13141;50.414;8.050;2022-12-10T13:03:05;2.80;99.90
25188;DHT22;13141;50.414;8.050;2022-12-10T13:05:38;2.80;99.90
25188;DHT22;13141;50.414;8.050;2022-12-10T13:15:53;2.80;99.90
25188;DHT22;13141;50.414;8.050;2022-12-10T13:18:39;2.80;99.90
25188;DHT22;13141;50.414;8.050;2022-12-10T13:23:54;2.90;99.90
25188;DHT22;13141;50.414;8.050;2022-12-10T13:26:30;2.90;99.90
25188;DHT22;13141;50.414;8.050;2022-12-10T13:32:43;2.50;99.90
25188;DHT22;13141;50.414;8.050;2022-12-10T13:34:43;2.70;99.90
25188;DHT22;13141;50.414;8.050;2022-12-10T13:37:30;3.10;99.90
25188;DHT22;13141;50.414;8.050;2022-12-10T13:40:24;2.60;99.90
25188;DHT22;13141;50.414;8.050;2022-12-10T13:42:56;2.50;99.90
25188;DHT22;13141;50.414;8.050;2022-12-10T13:45:41;2.50;99.90
25188;DHT22;13141;50.414;8.050;2022-12-10T13:48:18;2.40;99.90
25188;DHT22;13141;50.414;8.050;2022-12-10T13:51:02;2.40;99.90
25188;DHT22;13141;50.414;8.050;2022-12-10T13:56:39;2.40;99.90
25188;DHT22;13141;50.414;8.050;2022-12-10T13:59:23;2.40;99.90
25188;DHT22;13141;50.414;8.050;2022-12-10T14:02:03;2.40;99.90
25188;DHT22;13141;50.414;8.050;2022-12-10T14:07:20;2.40;99.90
25188;DHT22;13141;50.414;8.050;2022-12-10T14:09:52;2.30;99.90
25188;DHT22;13141;50.414;8.050;2022-12-10T14:14:52;2.40;99.90
25188;DHT22;13141;50.414;8.050;2022-12-10T14:17:24;2.60;99.90
25188;DHT22;13141;50.414;8.050;2022-12-10T14:19:55;2.30;99.90
25188;DHT22;13141;50.414;8.050;2022-12-10T14:22:45;2.40;99.90
25188;DHT22;13141;50.414;8.050;2022-12-10T14:25:14;2.30;99.90
25188;DHT22;13141;50.414;8.050;2022-12-10T14:27:40;2.20;99.90
25188;DHT22;13141;50.414;8.050;2022-12-10T14:30:19;2.20;99.90
25188;DHT22;13141;50.414;8.050;2022-12-10T14:32:46;2.20;99.90
25188;DHT22;13141;50.414;8.050;2022-12-10T14:35:18;2.20;99.90
25188;DHT22;13141;50.414;8.050;2022-12-10T14:37:46;2.20;99.90
25188;DHT22;13141;50.414;8.050;2022-12-10T14:40:37;2.20;99.90
25188;DHT22;13141;50.414;8.050;2022-12-10T14:43:07;2.20;99.90
25188;DHT22;13141;50.414;8.050;2022-12-10T14:45:53;2.30;99.90
25188;DHT22;13141;50.414;8.050;2022-12-10T14:48:21;2.10;99.90
25188;DHT22;13141;50.414;8.050;2022-12-10T14:50:48;2.10;99.90
25188;DHT22;13141;50.414;8.050;2022-12-10T14:53:22;2.00;99.90
25188;DHT22;13141;50.414;8.050;2022-12-10T14:55:51;1.90;99.90
25188;DHT22;13141;50.414;8.050;2022-12-10T15:01:39;1.90;99.90
25188;DHT22;13141;50.414;8.050;2022-12-10T15:04:14;1.80;99.90
25188;DHT22;13141;50.414;8.050;2022-12-10T15:06:41;1.80;99.90
25188;DHT22;13141;50.414;8.050;2022-12-10T15:09:15;1.70;99.90
25188;DHT22;13141;50.414;8.050;2022-12-10T15:11:41;1.70;99.90
25188;DHT22;13141;50.414;8.050;2022-12-10T15:14:10;1.80;99.90
25188;DHT22;13141;50.414;8.050;2022-12-10T15:16:44;1.90;99.90
25188;DHT22;13141;50.414;8.050;2022-12-10T15:22:00;1.90;99.90
25188;DHT22;13141;50.414;8.050;2022-12-10T15:24:32;1.90;99.90
25188;DHT22;13141;50.414;8.050;2022-12-10T15:27:00;1.90;99.90
25188;DHT22;13141;50.414;8.050;2022-12-10T15:32:24;1.90;99.90
25188;DHT22;13141;50.414;8.050;2022-12-10T15:35:05;1.90;99.90
25188;DHT22;13141;50.414;8.050;2022-12-10T15:37:34;1.90;99.90
25188;DHT22;13141;50.414;8.050;2022-12-10T15:40:02;1.90;99.90
25188;DHT22;13141;50.414;8.050;2022-12-10T15:45:25;1.80;99.90
25188;DHT22;13141;50.414;8.050;2022-12-10T15:47:52;1.80;99.90
25188;DHT22;13141;50.414;8.050;2022-12-10T15:50:19;1.80;99.90
25188;DHT22;13141;50.414;8.050;2022-12-10T15:52:45;1.80;99.90
25188;DHT22;13141;50.414;8.050;2022-12-10T15:55:12;1.80;99.90
25188;DHT22;13141;50.414;8.050;2022-12-10T15:57:39;1.80;99.90
25188;DHT22;13141;50.414;8.050;2022-12-10T16:00:22;1.80;99.90
25188;DHT22;13141;50.414;8.050;2022-12-10T16:05:28;1.70;99.90
25188;DHT22;13141;50.414;8.050;2022-12-10T16:07:56;1.70;99.90
25188;DHT22;13141;50.414;8.050;2022-12-10T16:10:24;1.90;99.90
25188;DHT22;13141;50.414;8.050;2022-12-10T16:13:20;1.70;99.90
25188;DHT22;13141;50.414;8.050;2022-12-10T16:15:52;1.60;99.90
25188;DHT22;13141;50.414;8.050;2022-12-10T16:18:19;1.60;99.90
25188;DHT22;13141;50.414;8.050;2022-12-10T16:20:44;1.60;99.90
25188;DHT22;13141;50.414;8.050;2022-12-10T16:23:10;1.60;99.90
25188;DHT22;13141;50.414;8.050;2022-12-10T16:25:38;1.60;99.90
25188;DHT22;13141;50.414;8.050;2022-12-10T16:28:16;1.60;99.90
25188;DHT22;13141;50.414;8.050;2022-12-10T16:30:54;1.60;99.90
25188;DHT22;13141;50.414;8.050;2022-12-10T16:33:21;1.60;99.90
25188;DHT22;13141;50.414;8.050;2022-12-10T16:35:48;1.60;99.90
25188;DHT22;13141;50.414;8.050;2022-12-10T16:38:14;1.60;99.90
25188;DHT22;13141;50.414;8.050;2022-12-10T16:40:42;1.60;99.90
25188;DHT22;13141;50.414;8.050;2022-12-10T16:43:15;1.60;99.90
25188;DHT22;13141;50.414;8.050;2022-12-10T16:45:41;1.50;99.90
25188;DHT22;13141;50.414;8.050;2022-12-10T16:48:07;1.50;99.90
25188;DHT22;13141;50.414;8.050;2022-12-10T16:50:33;1.50;99.90
25188;DHT22;13141;50.414;8.050;2022-12-10T16:53:06;1.50;99.90
25188;DHT22;13141;50.414;8.050;2022-12-10T16:55:36;1.50;99.90
25188;DHT22;13141;50.414;8.050;2022-12-10T16:58:01;1.50;99.90
25188;DHT22;13141;50.414;8.050;2022-12-10T17:00:27;1.50;99.90
25188;DHT22;13141;50.414;8.050;2022-12-10T17:02:53;1.50;99.90
25188;DHT22;13141;50.414;8.050;2022-12-10T17:05:27;1.50;99.90
25188;DHT22;13141;50.414;8.050;2022-12-10T17:07:54;1.50;99.90
25188;DHT22;13141;50.414;8.050;2022-12-10T17:10:19;1.60;99.90
25188;DHT22;13141;50.414;8.050;2022-12-10T17:13:10;1.70;99.90
25188;DHT22;13141;50.414;8.050;2022-12-10T17:15:36;1.50;99.90
25188;DHT22;13141;50.414;8.050;2022-12-10T17:18:02;1.50;99.90
25188;DHT22;13141;50.414;8.050;2022-12-10T17:20:28;1.50;99.90
25188;DHT22;13141;50.414;8.050;2022-12-10T17:22:54;1.40;99.90
25188;DHT22;13141;50.414;8.050;2022-12-10T17:25:20;1.50;99.90
25188;DHT22;13141;50.414;8.050;2022-12-10T17:27:46;1.40;99.90
25188;DHT22;13141;50.414;8.050;2022-12-10T17:30:13;1.40;99.90
25188;DHT22;13141;50.414;8.050;2022-12-10T17:32:39;1.30;99.90
25188;DHT22;13141;50.414;8.050;2022-12-10T17:35:05;1.30;99.90
25188;DHT22;13141;50.414;8.050;2022-12-10T17:37:34;1.30;99.90
25188;DHT22;13141;50.414;8.050;2022-12-10T17:40:00;1.30;99.90
25188;DHT22;13141;50.414;8.050;2022-12-10T17:42:25;1.30;99.90
25188;DHT22;13141;50.414;8.050;2022-12-10T17:44:51;1.30;99.90